Time;durP1;ratioP1;P1;durP2;ratioP2;P2;SDS_P1;SDS_P2;PMS_P1;PMS_P2;Temp;Humidity;BMP_temperature;BMP_pressure;BME280_temperature;BME280_humidity;BME280_pressure;Samples;Min_cycle;Max_cycle;Signal;HPM_P1;HPM_P2
2021/07/02 00:00:41;;;;;;;22.77;14.65;;;;;;;12.73;100.00;101613.38;5223813;28;20080;-66
2021/07/02 00:03:12;;;;;;;21.13;14.48;;;;;;;12.74;100.00;101611.59;5223473;28;20028;-66
2021/07/02 00:05:43;;;;;;;20.92;14.30;;;;;;;12.69;100.00;101611.97;5222143;28;20045;-66
2021/07/02 00:08:15;;;;;;;23.73;14.93;;;;;;;12.65;100.00;101600.00;5219454;28;20026;-66
2021/07/02 00:10:46;;;;;;;23.70;13.90;;;;;;;12.63;100.00;101596.69;5220430;28;20075;-66
2021/07/02 00:13:17;;;;;;;20.00;14.18;;;;;;;12.67;100.00;101600.72;5216940;28;20246;-66
2021/07/02 00:15:48;;;;;;;20.08;15.07;;;;;;;12.63;100.00;101596.69;5225242;28;20037;-66
2021/07/02 00:18:20;;;;;;;21.23;14.30;;;;;;;12.57;100.00;101597.19;5222477;28;20038;-66
2021/07/02 00:20:51;;;;;;;24.02;15.35;;;;;;;12.56;100.00;101596.34;5221979;28;20479;-66
2021/07/02 00:23:22;;;;;;;21.30;14.43;;;;;;;12.58;100.00;101594.44;5218726;28;20490;-66
2021/07/02 00:25:54;;;;;;;22.10;15.40;;;;;;;12.59;100.00;101595.28;5224328;28;20047;-66
2021/07/02 00:28:25;;;;;;;21.45;15.82;;;;;;;12.56;100.00;101596.34;5225181;28;20017;-66
2021/07/02 00:30:56;;;;;;;24.15;16.48;;;;;;;12.60;100.00;101596.94;5223534;28;20021;-66
2021/07/02 00:33:28;;;;;;;22.05;15.40;;;;;;;12.52;100.00;101583.59;5221995;28;20029;-66
2021/07/02 00:35:59;;;;;;;21.70;15.50;;;;;;;12.48;100.00;101588.25;5223383;28;20032;-66
2021/07/02 00:38:31;;;;;;;23.77;15.02;;;;;;;12.47;100.00;101588.38;5226145;28;20025;-66
2021/07/02 00:41:02;;;;;;;21.73;16.30;;;;;;;12.50;100.00;101588.13;5219455;28;20366;-66
2021/07/02 00:43:36;;;;;;;22.23;16.10;;;;;;;12.48;100.00;101579.53;5220923;28;20037;-66
2021/07/02 00:46:07;;;;;;;23.13;15.60;;;;;;;12.50;100.00;101582.84;5226391;28;20018;-66
2021/07/02 00:48:38;;;;;;;24.55;16.60;;;;;;;12.49;100.00;101584.66;5216214;28;20052;-66
2021/07/02 00:51:11;;;;;;;23.85;16.25;;;;;;;12.50;100.00;101583.72;5220050;28;20448;-66
2021/07/02 00:53:43;;;;;;;22.65;14.98;;;;;;;12.51;100.00;101585.38;5223362;28;20034;-66
2021/07/02 00:56:17;;;;;;;23.98;16.38;;;;;;;12.54;100.00;101589.53;5220020;28;20696;-66
2021/07/02 00:58:49;;;;;;;23.98;16.63;;;;;;;12.51;100.00;101590.63;5221294;28;20438;-66
2021/07/02 01:01:20;;;;;;;23.58;18.13;;;;;;;12.48;100.00;101583.00;5221584;28;20057;-66
2021/07/02 01:03:52;;;;;;;21.23;15.25;;;;;;;12.50;100.00;101581.09;5223028;28;20034;-66
2021/07/02 01:06:24;;;;;;;21.10;16.17;;;;;;;12.46;100.00;101577.00;5221682;28;20025;-66
2021/07/02 01:08:55;;;;;;;22.23;16.45;;;;;;;12.48;100.00;101576.91;5218522;28;20028;-66
2021/07/02 01:11:26;;;;;;;21.35;16.17;;;;;;;12.46;100.00;101582.28;5221245;28;20045;-66
2021/07/02 01:13:58;;;;;;;23.25;16.65;;;;;;;12.46;100.00;101573.56;5217929;28;20803;-66
2021/07/02 01:16:29;;;;;;;21.25;16.15;;;;;;;12.41;100.00;101573.94;5223474;28;20122;-66
2021/07/02 01:19:00;;;;;;;23.48;15.95;;;;;;;12.38;100.00;101575.00;5223793;28;20029;-66
2021/07/02 01:21:32;;;;;;;24.85;16.80;;;;;;;12.39;100.00;101579.31;5220838;28;20025;-66
2021/07/02 01:24:03;;;;;;;25.98;17.13;;;;;;;12.41;100.00;101576.56;5222901;28;20018;-66
2021/07/02 01:26:35;;;;;;;27.25;18.08;;;;;;;12.41;100.00;101582.66;5220889;28;20033;-66
2021/07/02 01:29:06;;;;;;;25.17;17.98;;;;;;;12.42;100.00;101578.22;5221353;28;20025;-66
2021/07/02 01:31:38;;;;;;;24.02;17.60;;;;;;;12.42;100.00;101580.84;5221504;28;20084;-66
2021/07/02 01:34:09;;;;;;;23.65;17.30;;;;;;;12.40;100.00;101580.16;5219523;28;20081;-66
2021/07/02 01:36:40;;;;;;;29.70;17.90;;;;;;;12.39;100.00;101579.31;5220321;28;20029;-66
2021/07/02 01:39:12;;;;;;;25.85;16.40;;;;;;;12.38;100.00;101577.63;5219294;28;20076;-66
2021/07/02 01:41:43;;;;;;;25.38;17.67;;;;;;;12.43;100.00;101581.72;5222254;28;20487;-66
2021/07/02 01:44:14;;;;;;;24.80;18.15;;;;;;;12.45;100.00;101579.78;5221771;28;20100;-66
2021/07/02 01:46:45;;;;;;;24.50;17.38;;;;;;;12.44;100.00;101580.75;5224515;28;20410;-66
2021/07/02 01:49:17;;;;;;;26.00;17.88;;;;;;;12.43;100.00;101574.66;5223695;28;20025;-66
2021/07/02 01:51:48;;;;;;;23.83;18.25;;;;;;;12.40;100.00;101567.84;5219633;28;20075;-66
2021/07/02 01:54:20;;;;;;;24.88;17.98;;;;;;;12.46;100.00;101573.56;5223149;28;20040;-66
2021/07/02 01:56:51;;;;;;;22.63;17.38;;;;;;;12.48;100.00;101576.91;5221613;28;20116;-66
2021/07/02 01:59:22;;;;;;;23.63;16.92;;;;;;;12.49;100.00;101570.69;5215887;28;20387;-66
2021/07/02 02:01:54;;;;;;;23.00;17.80;;;;;;;12.47;100.00;101570.81;5215561;28;20068;-66
2021/07/02 02:04:25;;;;;;;27.00;18.35;;;;;;;12.49;100.00;101570.69;5219745;28;20342;-66
2021/07/02 02:06:56;;;;;;;26.10;17.48;;;;;;;12.43;100.00;101558.06;5221388;28;20021;-66
2021/07/02 02:09:27;;;;;;;25.45;17.42;;;;;;;12.48;100.00;101572.47;5221965;28;20037;-66
2021/07/02 02:11:59;;;;;;;26.13;18.08;;;;;;;12.49;100.00;101568.88;5216880;28;20026;-66
2021/07/02 02:14:31;;;;;;;24.88;18.33;;;;;;;12.50;100.00;101564.47;5219998;28;20042;-66
2021/07/02 02:17:02;;;;;;;25.77;18.10;;;;;;;12.54;100.00;101556.22;5221861;28;20037;-66
2021/07/02 02:19:34;;;;;;;23.35;17.77;;;;;;;12.53;100.00;101565.03;5221642;28;20108;-66
2021/07/02 02:22:06;;;;;;;26.60;18.73;;;;;;;12.50;100.00;101562.69;5222433;28;20076;-66
2021/07/02 02:24:37;;;;;;;28.45;18.90;;;;;;;12.51;100.00;101563.53;5219662;28;20017;-66
2021/07/02 02:27:09;;;;;;;24.95;17.75;;;;;;;12.52;100.00;101560.75;5221306;28;20040;-66
2021/07/02 02:29:40;;;;;;;25.92;18.05;;;;;;;12.54;100.00;101563.25;5217112;28;20021;-66
2021/07/02 02:32:12;;;;;;;30.17;19.33;;;;;;;12.54;100.00;101565.88;5220462;28;20037;-66
2021/07/02 02:34:43;;;;;;;26.90;18.83;;;;;;;12.57;100.00;101565.63;5223237;28;20033;-66
2021/07/02 02:37:14;;;;;;;25.70;18.17;;;;;;;12.57;100.00;101561.22;5220377;28;20055;-66
2021/07/02 02:39:46;;;;;;;28.20;18.02;;;;;;;12.60;100.00;101560.13;5218826;28;20033;-66
2021/07/02 02:42:17;;;;;;;26.50;17.25;;;;;;;12.62;100.00;101556.44;5218985;28;20026;-66
2021/07/02 02:44:48;;;;;;;23.13;17.80;;;;;;;12.65;100.00;101550.06;5222032;28;20048;-66
2021/07/02 02:47:19;;;;;;;27.83;17.15;;;;;;;12.66;100.00;101549.97;5219067;28;20052;-66
2021/07/02 02:49:51;;;;;;;24.92;16.38;;;;;;;12.64;100.00;101543.97;5220566;28;20018;-66
2021/07/02 02:52:22;;;;;;;24.42;17.00;;;;;;;12.66;100.00;101546.50;5223959;28;20128;-66
2021/07/02 02:54:54;;;;;;;32.20;17.55;;;;;;;12.68;100.00;101544.56;5224379;28;20033;-66
2021/07/02 02:57:25;;;;;;;24.38;17.55;;;;;;;12.68;100.00;101541.94;5227052;28;20024;-66
2021/07/02 02:59:56;;;;;;;24.27;16.73;;;;;;;12.68;100.00;101536.66;5225930;28;20046;-66
2021/07/02 03:02:27;;;;;;;24.35;16.02;;;;;;;12.70;100.00;101545.28;5220253;28;20445;-66
2021/07/02 03:04:59;;;;;;;26.77;18.13;;;;;;;12.66;100.00;101542.06;5225414;28;20028;-66
2021/07/02 03:07:30;;;;;;;23.40;16.17;;;;;;;12.71;100.00;101552.19;5220415;28;20064;-66
2021/07/02 03:10:03;;;;;;;24.77;17.30;;;;;;;12.74;100.00;101551.94;5223546;28;20076;-66
2021/07/02 03:12:35;;;;;;;24.05;16.90;;;;;;;12.71;100.00;101540.84;5220512;28;20030;-66
2021/07/02 03:15:06;;;;;;;23.58;16.67;;;;;;;12.72;100.00;101543.34;5222606;28;20025;-66
2021/07/02 03:17:38;;;;;;;24.55;17.10;;;;;;;12.75;100.00;101547.53;5226207;28;20529;-66
2021/07/02 03:20:10;;;;;;;24.65;16.80;;;;;;;12.78;100.00;101550.72;5223246;28;20183;-66
2021/07/02 03:22:42;;;;;;;24.20;15.50;;;;;;;12.80;100.00;101550.59;5219754;28;20037;-66
2021/07/02 03:25:14;;;;;;;23.25;16.05;;;;;;;12.77;100.00;101538.56;5223661;28;20025;-66
2021/07/02 03:27:45;;;;;;;26.38;17.23;;;;;;;12.78;100.00;101544.66;5221358;28;20021;-66
2021/07/02 03:30:17;;;;;;;21.67;15.65;;;;;;;12.80;100.00;101551.44;5224496;28;20025;-66
2021/07/02 03:32:48;;;;;;;25.08;16.67;;;;;;;12.82;100.00;101552.16;5221652;28;20475;-66
2021/07/02 03:35:19;;;;;;;22.00;14.77;;;;;;;12.85;100.00;101551.06;5220382;28;20036;-66
2021/07/02 03:37:51;;;;;;;23.73;15.52;;;;;;;12.85;100.00;101546.63;5222778;28;20062;-66
2021/07/02 03:40:22;;;;;;;23.13;16.52;;;;;;;12.86;100.00;101561.44;5224564;28;20225;-66
2021/07/02 03:42:53;;;;;;;24.02;16.35;;;;;;;12.87;100.00;101563.09;5221366;28;20022;-66
2021/07/02 03:45:25;;;;;;;23.45;16.25;;;;;;;12.88;100.00;101562.16;5222935;28;20028;-66
2021/07/02 03:47:56;;;;;;;23.67;15.98;;;;;;;12.89;100.00;101557.75;5221286;28;20037;-66
2021/07/02 03:50:27;;;;;;;25.23;16.48;;;;;;;12.88;100.00;101567.44;5222687;28;20350;-66
2021/07/02 03:52:59;;;;;;;25.23;14.80;;;;;;;12.87;100.00;101565.72;5219673;28;20380;-66
2021/07/02 03:55:30;;;;;;;27.17;16.48;;;;;;;12.90;100.00;101567.28;5222320;28;20038;-66
2021/07/02 03:58:03;;;;;;;25.17;15.48;;;;;;;12.91;100.00;101566.31;5222902;28;20033;-66
2021/07/02 04:00:35;;;;;;;22.40;15.48;;;;;;;12.91;100.00;101561.06;5218618;28;20054;-66
2021/07/02 04:03:06;;;;;;;20.67;14.93;;;;;;;12.95;100.00;101566.91;5218707;28;20028;-66
2021/07/02 04:05:41;;;;;;;20.25;14.23;;;;;;;12.96;100.00;101565.97;5221757;28;20080;-66
2021/07/02 04:08:13;;;;;;;22.13;15.10;;;;;;;12.96;100.00;101560.69;5221279;28;20022;-66
2021/07/02 04:10:44;;;;;;;22.55;16.13;;;;;;;12.98;100.00;101571.91;5220130;28;20033;-66
2021/07/02 04:13:16;;;;;;;24.77;15.85;;;;;;;12.95;100.00;101564.28;5222898;28;20029;-66
2021/07/02 04:15:49;;;;;;;20.38;15.18;;;;;;;12.96;100.00;101566.78;5221175;28;20052;-66
2021/07/02 04:18:20;;;;;;;19.17;14.27;;;;;;;13.01;100.00;101569.03;5221957;28;20983;-66
2021/07/02 04:20:52;;;;;;;20.42;14.98;;;;;;;13.01;100.00;101569.84;5221560;28;20052;-66
2021/07/02 04:23:23;;;;;;;21.42;14.82;;;;;;;13.03;100.00;101572.34;5221437;28;20549;-66
2021/07/02 04:25:54;;;;;;;18.10;13.35;;;;;;;13.03;100.00;101565.31;5218802;28;20112;-66
2021/07/02 04:28:25;;;;;;;18.02;13.52;;;;;;;13.05;100.00;101566.00;5222127;28;20018;-66
2021/07/02 04:30:57;;;;;;;24.30;15.05;;;;;;;13.07;100.00;101571.16;5220175;28;20030;-66
2021/07/02 04:33:28;;;;;;;23.20;14.23;;;;;;;13.10;100.00;101563.81;5226180;28;20061;-66
2021/07/02 04:35:59;;;;;;;18.50;13.60;;;;;;;13.14;100.00;101564.38;5219752;28;20383;-66
2021/07/02 04:38:31;;;;;;;20.55;14.18;;;;;;;13.20;100.00;101565.69;5221660;28;20427;-66
2021/07/02 04:41:02;;;;;;;21.67;13.70;;;;;;;13.19;100.00;101564.84;5218005;28;20025;-66
2021/07/02 04:43:33;;;;;;;20.17;13.52;;;;;;;13.23;100.00;101568.06;5218795;28;20034;-66
2021/07/02 04:46:07;;;;;;;21.10;13.98;;;;;;;13.25;100.00;101568.78;5221774;28;20033;-66
2021/07/02 04:48:39;;;;;;;18.25;13.13;;;;;;;13.26;100.00;101562.56;5221844;28;20037;-66
2021/07/02 04:51:11;;;;;;;21.52;14.13;;;;;;;13.26;100.00;101565.19;5220090;28;20030;-66
2021/07/02 04:53:43;;;;;;;19.20;13.18;;;;;;;13.26;100.00;101552.88;5220727;28;20053;-66
2021/07/02 04:56:14;;;;;;;17.52;13.25;;;;;;;13.33;100.00;101554.03;5217436;28;20034;-66
2021/07/02 04:58:51;;;;;;;20.58;12.73;;;;;;;13.32;100.00;101554.16;5221157;28;20386;-66
2021/07/02 05:01:24;;;;;;;20.85;13.45;;;;;;;13.30;100.00;101559.56;5221344;28;20498;-66
2021/07/02 05:03:55;;;;;;;22.90;14.32;;;;;;;13.25;100.00;101545.94;5218990;28;20044;-66
2021/07/02 05:06:26;;;;;;;17.80;13.40;;;;;;;13.31;100.00;101561.22;5224968;28;20038;-66
2021/07/02 05:08:58;;;;;;;19.90;13.95;;;;;;;13.33;100.00;101555.81;5221283;28;20459;-66
2021/07/02 05:11:29;;;;;;;21.15;13.65;;;;;;;13.36;100.00;101552.91;5220387;28;20046;-66
2021/07/02 05:14:04;;;;;;;21.90;13.93;;;;;;;13.45;100.00;101553.91;5219780;28;20052;-66
2021/07/02 05:16:35;;;;;;;18.67;13.27;;;;;;;13.49;100.00;101552.72;5225381;28;20029;-66
2021/07/02 05:19:06;;;;;;;18.33;12.35;;;;;;;13.61;100.00;101556.94;5222800;28;20029;-66
2021/07/02 05:21:38;;;;;;;18.05;12.63;;;;;;;13.76;100.00;101565.31;5221994;28;20363;-66
2021/07/02 05:24:09;;;;;;;21.25;13.82;;;;;;;13.88;100.00;101559.78;5226618;28;20029;-66
2021/07/02 05:26:40;;;;;;;20.80;12.80;;;;;;;13.99;100.00;101558.03;5217039;28;20029;-66
2021/07/02 05:29:12;;;;;;;16.90;12.32;;;;;;;14.06;100.00;101553.88;5220114;28;20517;-66
2021/07/02 05:31:43;;;;;;;16.27;12.70;;;;;;;14.09;100.00;101562.34;5221565;28;20438;-66
2021/07/02 05:34:14;;;;;;;19.48;12.77;;;;;;;14.14;100.00;101564.56;5219344;28;20060;-66
2021/07/02 05:36:46;;;;;;;16.77;12.75;;;;;;;14.17;100.00;101561.69;5223166;28;20025;-66
2021/07/02 05:39:17;;;;;;;19.73;12.02;;;;;;;14.26;100.00;101571.38;5223358;28;20026;-66
2021/07/02 05:41:48;;;;;;;18.17;12.25;;;;;;;14.29;100.00;101563.22;5222462;28;20474;-66
2021/07/02 05:44:20;;;;;;;17.75;11.68;;;;;;;14.25;100.00;101569.72;5221507;28;20033;-66
2021/07/02 05:46:51;;;;;;;16.90;11.63;;;;;;;14.36;100.00;101579.31;5220038;28;20029;-66
2021/07/02 05:49:23;;;;;;;17.20;11.80;;;;;;;14.44;100.00;101570.72;5217025;28;20113;-66
2021/07/02 05:51:54;;;;;;;17.67;12.60;;;;;;;14.46;100.00;101572.22;5219502;28;20025;-67
2021/07/02 05:54:25;;;;;;;14.52;10.98;;;;;;;14.51;100.00;101575.34;5222113;28;20026;-66
2021/07/02 05:56:57;;;;;;;15.10;12.07;;;;;;;14.55;100.00;101579.38;5221729;28;20025;-66
2021/07/02 05:59:28;;;;;;;19.77;11.98;;;;;;;14.59;100.00;101582.56;5221487;28;20494;-67
2021/07/02 06:01:59;;;;;;;15.23;11.30;;;;;;;14.66;100.00;101577.53;5216202;28;20514;-66
2021/07/02 06:04:31;;;;;;;14.82;11.38;;;;;;;14.68;100.00;101581.72;5220408;28;20029;-66
2021/07/02 06:07:02;;;;;;;16.67;11.38;;;;;;;14.72;100.00;101582.28;5222519;28;20026;-66
2021/07/02 06:09:36;;;;;;;15.40;11.63;;;;;;;14.78;99.66;101584.38;5219295;28;20084;-66
2021/07/02 06:12:07;;;;;;;16.25;11.50;;;;;;;14.79;98.65;101589.50;5218347;28;20048;-66
2021/07/02 06:14:38;;;;;;;14.68;10.93;;;;;;;14.92;99.58;101591.00;5220444;28;20429;-66
2021/07/02 06:17:10;;;;;;;15.65;11.20;;;;;;;14.94;98.55;101599.63;5218637;28;20095;-66
2021/07/02 06:19:41;;;;;;;17.30;10.52;;;;;;;15.02;97.20;101597.13;5215565;28;20022;-66
2021/07/02 06:22:12;;;;;;;16.55;11.18;;;;;;;15.08;97.68;101599.22;5218339;28;20024;-66
2021/07/02 06:24:44;;;;;;;11.93;9.70;;;;;;;15.08;97.19;101607.94;5219971;28;20398;-66
2021/07/02 06:27:15;;;;;;;17.58;11.68;;;;;;;15.28;96.92;101603.47;5225479;28;20372;-66
2021/07/02 06:29:46;;;;;;;14.63;10.80;;;;;;;15.42;96.43;101606.63;5224338;28;20033;-66
2021/07/02 06:32:17;;;;;;;17.33;10.43;;;;;;;15.42;95.09;101602.19;5222253;28;20029;-66
2021/07/02 06:34:49;;;;;;;17.65;10.95;;;;;;;15.38;95.11;101603.47;5218924;28;20552;-66
2021/07/02 06:37:20;;;;;;;15.00;11.52;;;;;;;15.40;94.55;101603.31;5213065;28;20060;-66
2021/07/02 06:39:51;;;;;;;14.88;11.00;;;;;;;15.46;95.73;101614.13;5220568;28;20074;-66
2021/07/02 06:42:23;;;;;;;14.23;10.45;;;;;;;15.48;95.11;101612.16;5219177;28;20092;-66
2021/07/02 06:44:54;;;;;;;16.17;11.43;;;;;;;15.48;95.85;101614.81;5213358;28;20120;-66
2021/07/02 06:47:25;;;;;;;14.68;11.05;;;;;;;15.47;96.00;101614.97;5219598;28;20034;-66
2021/07/02 06:49:57;;;;;;;19.33;12.55;;;;;;;15.41;94.40;101619.00;5217164;28;20022;-67
2021/07/02 06:52:28;;;;;;;14.27;11.25;;;;;;;15.41;95.25;101623.44;5219599;28;20028;-66
2021/07/02 06:54:59;;;;;;;14.45;11.13;;;;;;;15.32;96.97;101615.41;5220263;28;20496;-66
2021/07/02 06:57:30;;;;;;;16.92;11.63;;;;;;;15.26;97.76;101613.31;5217577;28;20509;-66
2021/07/02 07:00:03;;;;;;;17.35;12.52;;;;;;;15.35;97.69;101624.03;5219258;28;20117;-66
2021/07/02 07:02:35;;;;;;;17.80;12.15;;;;;;;15.40;98.80;101616.50;5218328;28;20042;-66
2021/07/02 07:05:07;;;;;;;17.17;12.35;;;;;;;15.43;98.10;101619.69;5226982;28;20460;-66
2021/07/02 07:07:39;;;;;;;15.57;11.98;;;;;;;15.49;97.35;101618.28;5223014;28;20025;-66
2021/07/02 07:10:11;;;;;;;17.40;12.93;;;;;;;15.52;98.20;101608.25;5220275;28;20597;-66
2021/07/02 07:12:42;;;;;;;17.70;12.85;;;;;;;15.57;96.99;101615.78;5219233;28;20025;-66
2021/07/02 07:15:15;;;;;;;17.67;13.15;;;;;;;15.55;96.24;101612.44;5219510;28;20015;-66
2021/07/02 07:17:46;;;;;;;14.40;11.80;;;;;;;15.73;97.34;101612.56;5220485;28;20097;-66
2021/07/02 07:20:18;;;;;;;17.33;12.32;;;;;;;15.74;96.78;101611.56;5216226;28;20554;-66
2021/07/02 07:22:49;;;;;;;15.52;12.23;;;;;;;15.68;95.41;101620.91;5217006;28;20052;-66
2021/07/02 07:25:21;;;;;;;17.20;12.40;;;;;;;15.70;95.83;101607.56;5224375;28;20233;-66
2021/07/02 07:27:52;;;;;;;15.70;12.07;;;;;;;15.71;95.18;101619.78;5218693;28;20640;-67
2021/07/02 07:30:24;;;;;;;15.88;11.63;;;;;;;15.64;95.20;101621.28;5217966;28;20037;-66
2021/07/02 07:32:56;;;;;;;17.17;11.95;;;;;;;15.73;96.83;101623.13;5214214;28;20037;-66
2021/07/02 07:35:31;;;;;;;17.83;11.20;;;;;;;15.74;96.36;101617.69;5221623;28;20379;-66
2021/07/02 07:38:02;;;;;;;17.20;12.40;;;;;;;15.74;95.41;101624.78;5217683;28;20041;-66
2021/07/02 07:40:34;;;;;;;15.68;12.40;;;;;;;15.81;96.44;101620.59;5222544;28;20026;-66
2021/07/02 07:43:05;;;;;;;16.70;12.20;;;;;;;15.78;94.48;101620.88;5213091;28;20022;-66
2021/07/02 07:45:37;;;;;;;17.42;12.38;;;;;;;15.86;95.83;101628.06;5220486;28;20032;-66
2021/07/02 07:48:08;;;;;;;18.73;14.00;;;;;;;15.81;94.42;101631.16;5221094;28;20029;-66
2021/07/02 07:50:44;;;;;;;23.58;13.45;;;;;;;15.82;94.63;101627.53;5213841;28;20038;-67
2021/07/02 07:53:16;;;;;;;19.27;13.70;;;;;;;15.85;95.28;101629.06;5212628;28;20055;-66
2021/07/02 07:55:49;;;;;;;19.33;14.23;;;;;;;15.92;94.78;101627.50;5214343;28;20108;-67
2021/07/02 07:58:20;;;;;;;;;;;;;;;16.16;95.22;101634.88;5217914;28;20526;-67
2021/07/02 08:00:51;;;;;;;21.77;16.05;;;;;;;15.98;94.28;101632.19;5217076;28;19917;-66
2021/07/02 08:03:22;;;;;;;22.60;16.00;;;;;;;16.05;94.10;101628.81;5213726;28;20064;-66
2021/07/02 08:05:54;;;;;;;21.83;16.27;;;;;;;16.18;93.30;101628.47;5212560;28;20037;-67
2021/07/02 08:08:25;;;;;;;21.70;16.52;;;;;;;16.29;93.07;101625.63;5213478;28;20037;-67
2021/07/02 08:10:56;;;;;;;21.80;16.75;;;;;;;16.41;92.80;101633.34;5218876;28;20471;-67
2021/07/02 08:13:29;;;;;;;27.88;17.92;;;;;;;16.53;92.98;101627.69;5216652;28;20034;-67
2021/07/02 08:16:00;;;;;;;32.85;19.95;;;;;;;16.62;90.70;101631.25;5218637;28;20026;-67
2021/07/02 08:18:32;;;;;;;32.85;21.20;;;;;;;16.67;88.75;101634.28;5214254;28;20026;-67
2021/07/02 08:21:03;;;;;;;27.60;18.92;;;;;;;16.92;90.87;101629.25;5212819;28;20263;-67
2021/07/02 08:23:34;;;;;;;27.10;19.47;;;;;;;17.07;89.33;101630.34;5222957;28;20029;-66
2021/07/02 08:26:06;;;;;;;27.50;19.67;;;;;;;17.23;89.29;101635.75;5218175;28;20025;-66
2021/07/02 08:31:27;;;;;;;28.50;20.25;;;;;;;17.59;88.06;101632.22;5218650;28;20033;-67
2021/07/02 08:33:59;;;;;;;28.45;20.20;;;;;;;17.73;86.25;101623.69;5216630;28;20030;-66
2021/07/02 08:36:30;;;;;;;33.72;20.88;;;;;;;17.86;85.63;101636.53;5219204;28;20693;-67
2021/07/02 08:39:03;;;;;;;28.55;20.73;;;;;;;17.97;85.73;101629.13;5217521;28;20265;-67
2021/07/02 08:41:34;;;;;;;31.85;22.50;;;;;;;17.92;84.97;101628.78;5218793;28;20447;-67
2021/07/02 08:44:06;;;;;;;33.20;22.90;;;;;;;18.08;86.66;101627.19;5211077;28;20036;-67
2021/07/02 08:46:38;;;;;;;34.67;22.93;;;;;;;18.10;85.33;101633.97;5214264;28;20029;-67
2021/07/02 08:49:10;;;;;;;32.17;21.50;;;;;;;17.94;84.15;101634.72;5215805;28;20020;-67
2021/07/02 08:51:41;;;;;;;33.50;23.23;;;;;;;17.93;84.83;101637.56;5222490;28;20029;-67
2021/07/02 08:54:17;;;;;;;32.43;22.00;;;;;;;17.93;85.12;101648.16;5220194;28;20044;-67
2021/07/02 08:56:58;;;;;;;32.90;22.40;;;;;;;17.82;85.35;101648.44;5213738;28;20414;-67
2021/07/02 08:59:30;;;;;;;31.95;22.65;;;;;;;17.81;85.71;101660.03;5213217;28;20030;-67
2021/07/02 09:02:01;;;;;;;35.92;23.92;;;;;;;17.68;84.88;101653.28;5213924;28;20037;-67
2021/07/02 09:04:39;;;;;;;34.53;22.92;;;;;;;17.67;85.62;101654.28;5217221;28;20021;-67
2021/07/02 09:07:12;;;;;;;35.08;23.25;;;;;;;17.51;85.04;101659.50;5220310;28;20025;-67
2021/07/02 09:10:00;;;;;;;32.42;21.63;;;;;;;17.65;87.33;101661.56;5214025;28;20026;-67
2021/07/02 09:12:35;;;;;;;29.20;20.98;;;;;;;17.48;86.61;101668.56;5218666;28;20044;-66
2021/07/02 09:15:08;;;;;;;35.60;21.65;;;;;;;17.52;87.49;101669.91;5216056;28;20491;-66
2021/07/02 09:17:45;;;;;;;;;;;;;;;17.79;87.67;101667.31;5211191;28;20107;-66
2021/07/02 09:20:36;;;;;;;36.30;22.13;;;;;;;17.62;86.77;101672.47;5211594;28;19913;-66
2021/07/02 09:23:13;;;;;;;30.10;21.48;;;;;;;17.55;88.27;101665.31;5210808;28;20017;-66
2021/07/02 09:25:51;;;;;;;30.70;22.10;;;;;;;17.62;87.57;101671.66;5220393;28;20773;-66
2021/07/02 09:28:26;;;;;;;32.33;23.73;;;;;;;17.50;86.24;101673.69;5217635;28;20581;-66
2021/07/02 09:30:57;;;;;;;37.00;23.58;;;;;;;17.50;87.20;101666.63;5212275;28;20042;-66
2021/07/02 09:33:30;;;;;;;37.40;23.83;;;;;;;17.53;86.88;101676.03;5208431;28;20022;-66
2021/07/02 09:36:01;;;;;;;33.35;23.27;;;;;;;17.40;87.07;101680.94;5220665;28;20044;-66
2021/07/02 09:38:37;;;;;;;37.63;25.20;;;;;;;17.40;88.20;101683.59;5213430;28;20394;-66
2021/07/02 09:41:10;;;;;;;45.42;27.48;;;;;;;17.32;88.13;101684.34;5222743;28;20246;-66
2021/07/02 09:43:41;;;;;;;42.03;26.58;;;;;;;17.19;87.87;101684.72;5233061;28;20036;-66
2021/07/02 09:46:12;;;;;;;43.05;26.77;;;;;;;17.11;88.40;101697.06;5217227;28;20025;-66
2021/07/02 09:48:45;;;;;;;43.27;29.33;;;;;;;17.06;91.57;101691.41;5217448;28;20032;-66
2021/07/02 09:51:23;;;;;;;45.95;27.75;;;;;;;17.15;92.40;101701.91;5219838;28;20072;-66
2021/07/02 09:54:06;;;;;;;45.85;28.85;;;;;;;17.10;93.22;101703.38;5214654;28;20029;-66
2021/07/02 09:56:37;;;;;;;46.58;30.38;;;;;;;17.03;91.75;101701.31;5218070;28;20030;-66
2021/07/02 09:59:16;;;;;;;43.35;30.33;;;;;;;17.07;94.28;101703.66;5216550;28;20032;-66
2021/07/02 10:01:47;;;;;;;42.63;28.55;;;;;;;17.02;94.56;101707.59;5221158;28;20053;-66
2021/07/02 10:04:18;;;;;;;41.40;28.80;;;;;;;16.96;93.87;101710.00;5220108;28;20056;-66
2021/07/02 10:07:13;;;;;;;44.23;29.43;;;;;;;17.04;94.35;101712.72;5223231;28;20037;-66
2021/07/02 10:09:45;;;;;;;44.05;29.67;;;;;;;16.91;94.93;101717.56;5220720;28;20022;-66
2021/07/02 10:12:19;;;;;;;42.22;28.77;;;;;;;16.98;94.84;101721.28;5223948;28;20032;-66
2021/07/02 10:14:51;;;;;;;39.58;28.38;;;;;;;17.00;95.28;101717.50;5223212;28;20922;-66
2021/07/02 10:17:23;;;;;;;42.17;29.63;;;;;;;16.97;94.76;101719.59;5221549;28;20065;-66
2021/07/02 10:19:55;;;;;;;42.60;30.87;;;;;;;17.05;94.70;101727.66;5221210;28;20171;-66
2021/07/02 10:22:27;;;;;;;43.83;29.33;;;;;;;17.12;96.44;101728.72;5222953;28;20017;-66
2021/07/02 10:24:58;;;;;;;43.67;29.60;;;;;;;17.25;95.93;101728.31;5217297;28;20478;-66
2021/07/02 10:27:31;;;;;;;46.65;30.25;;;;;;;17.33;94.72;101736.34;5219976;28;20038;-66
2021/07/02 10:30:03;;;;;;;41.78;29.48;;;;;;;17.32;94.86;101732.03;5217716;28;20021;-66
2021/07/02 10:32:36;;;;;;;38.77;28.33;;;;;;;17.41;93.36;101728.44;5219440;28;20620;-66
2021/07/02 10:35:12;;;;;;;39.58;28.70;;;;;;;17.32;93.75;101733.84;5211207;28;20044;-66
2021/07/02 10:37:48;;;;;;;38.75;28.40;;;;;;;17.39;94.07;101735.75;5217535;28;20061;-67
2021/07/02 10:40:44;;;;;;;38.78;27.50;;;;;;;17.44;92.95;101733.44;5239929;28;20218;-66
2021/07/02 10:43:21;;;;;;;41.05;29.30;;;;;;;17.37;93.65;101723.63;5222091;28;20034;-66
2021/07/02 10:46:07;;;;;;;39.75;29.25;;;;;;;17.50;93.48;101729.34;5222014;28;20061;-66
2021/07/02 10:48:55;;;;;;;37.00;28.30;;;;;;;17.54;94.50;101728.06;5217241;28;20037;-66
2021/07/02 10:51:30;;;;;;;41.17;28.42;;;;;;;17.44;94.15;101725.50;5221167;28;20098;-66
2021/07/02 10:54:13;;;;;;;38.05;27.65;;;;;;;17.54;94.44;101730.72;5222031;28;20068;-66
2021/07/02 10:56:57;;;;;;;;;;;;;;;17.78;93.72;101735.38;5218752;28;20033;-66
2021/07/02 10:59:37;;;;;;;37.13;28.52;;;;;;;17.66;94.78;101731.31;5221282;28;19921;-67
2021/07/02 11:02:09;;;;;;;41.05;28.63;;;;;;;17.66;94.38;101728.66;5216410;28;20491;-67
2021/07/02 11:04:44;;;;;;;41.72;29.00;;;;;;;17.95;93.51;101728.34;5213319;28;20084;-66
2021/07/02 11:07:22;;;;;;;38.33;29.52;;;;;;;18.02;93.43;101725.91;5219043;28;20022;-66
2021/07/02 11:09:58;;;;;;;40.03;29.67;;;;;;;18.26;93.36;101735.81;5219835;28;20160;-66
2021/07/02 11:12:36;;;;;;;41.17;28.63;;;;;;;18.27;91.93;101721.56;5222021;28;20033;-66
2021/07/02 11:15:16;;;;;;;39.85;29.73;;;;;;;18.29;92.41;101735.50;5221299;28;20056;-66
2021/07/02 11:18:09;;;;;;;44.38;28.88;;;;;;;18.24;92.43;101723.53;5221102;28;20041;-66
2021/07/02 11:20:41;;;;;;;36.30;26.15;;;;;;;18.08;91.02;101734.09;5222794;28;20250;-66
2021/07/02 11:23:19;;;;;;;35.47;26.42;;;;;;;18.27;92.32;101724.22;5221628;28;20026;-67
2021/07/02 11:25:55;;;;;;;34.03;25.17;;;;;;;18.27;90.80;101730.38;5220917;28;20036;-66
2021/07/02 11:28:44;;;;;;;35.22;26.77;;;;;;;18.40;91.38;101721.94;5221895;28;20029;-66
2021/07/02 11:31:18;;;;;;;33.65;24.08;;;;;;;18.43;91.51;101729.59;5212634;28;20057;-66
2021/07/02 11:33:51;;;;;;;29.65;23.83;;;;;;;18.30;90.53;101737.19;5221682;28;20530;-67